Time;durP1;ratioP1;P1;durP2;ratioP2;P2;SDS_P1;SDS_P2;PMS_P1;PMS_P2;Temp;Humidity;BMP_temperature;BMP_pressure;BME280_temperature;BME280_humidity;BME280_pressure;Samples;Min_cycle;Max_cycle;Signal;HPM_P1;HPM_P2
2022/09/04 00:01:57;;;;;;;9.90;2.60;;;;;15.50;97822.60;;;;110866;1248;41168;-61
2022/09/04 00:04:59;;;;;;;4.00;1.80;;;;;15.50;97826.40;;;;111170;1247;41231;-61
2022/09/04 00:07:43;;;;;;;4.60;2.00;;;;;15.50;97831.40;;;;110467;1250;41958;-61
2022/09/04 00:10:21;;;;;;;6.10;1.90;;;;;15.50;97829.20;;;;111092;1248;41155;-61
2022/09/04 00:13:05;;;;;;;4.90;2.10;;;;;15.56;97830.80;;;;111005;1248;41717;-61
2022/09/04 00:15:42;;;;;;;7.30;2.00;;;;;15.60;97833.60;;;;110738;1249;41636;-61
2022/09/04 00:18:17;;;;;;;5.70;2.10;;;;;15.60;97839.40;;;;110786;1247;41633;-61
2022/09/04 00:20:52;;;;;;;5.80;2.30;;;;;15.60;97838.20;;;;111131;1249;42150;-60
2022/09/04 00:23:42;;;;;;;4.40;1.90;;;;;15.66;97838.40;;;;111121;1248;41633;-61
2022/09/04 00:26:40;;;;;;;6.00;2.20;;;;;15.70;97836.00;;;;110992;1247;41966;-61
2022/09/04 00:29:54;;;;;;;4.40;1.90;;;;;15.70;97838.80;;;;109822;1249;1611451;-60
2022/09/04 00:32:56;;;;;;;4.30;2.00;;;;;15.70;97838.00;;;;110957;1248;41150;-61
2022/09/04 00:35:33;;;;;;;5.40;2.20;;;;;15.80;97834.80;;;;111103;1247;41128;-61
2022/09/04 00:38:11;;;;;;;6.10;2.60;;;;;15.80;97834.00;;;;111049;1247;41997;-60
2022/09/04 00:41:03;;;;;;;5.40;2.40;;;;;15.70;97836.80;;;;111063;1248;41144;-62
2022/09/04 00:43:57;;;;;;;5.30;2.30;;;;;15.70;97836.00;;;;110805;1250;41542;-62
2022/09/04 00:46:52;;;;;;;3.60;1.90;;;;;15.70;97841.00;;;;111063;1247;42247;-61
2022/09/04 00:49:56;;;;;;;5.00;2.30;;;;;15.70;97842.60;;;;110863;1250;41724;-60
2022/09/04 00:52:53;;;;;;;5.10;2.40;;;;;15.70;97842.80;;;;110803;1249;41392;-61
2022/09/04 00:55:35;;;;;;;9.30;2.80;;;;;15.70;97843.60;;;;110908;1248;41143;-61
2022/09/04 00:58:07;;;;;;;6.10;2.60;;;;;15.66;97841.20;;;;111083;1248;41208;-61
2022/09/04 01:00:37;;;;;;;6.90;2.70;;;;;15.62;97842.80;;;;110956;1249;41140;-60
2022/09/04 01:03:13;;;;;;;8.60;3.40;;;;;15.60;97843.80;;;;111106;1247;41179;-61
2022/09/04 01:06:14;;;;;;;8.30;3.20;;;;;15.50;97841.00;;;;111069;1247;41130;-61
2022/09/04 01:09:21;;;;;;;8.40;3.20;;;;;15.46;97844.80;;;;111129;1248;42041;-61
2022/09/04 01:12:17;;;;;;;7.50;2.80;;;;;15.40;97842.80;;;;111008;1247;41274;-61
2022/09/04 01:15:23;;;;;;;6.80;2.60;;;;;15.40;97850.00;;;;111007;1248;41169;-60
2022/09/04 01:18:36;;;;;;;5.80;2.20;;;;;15.40;97849.00;;;;110942;1249;41485;-61
2022/09/04 01:21:29;;;;;;;6.10;2.40;;;;;15.40;97848.80;;;;110730;1248;41164;-61
2022/09/04 01:24:31;;;;;;;4.70;2.00;;;;;15.40;97848.00;;;;111084;1250;41523;-61
2022/09/04 01:27:17;;;;;;;5.50;2.30;;;;;15.40;97849.80;;;;110588;1249;41185;-61
2022/09/04 01:30:04;;;;;;;5.20;2.20;;;;;15.40;97846.60;;;;111117;1248;41149;-61
2022/09/04 01:32:51;;;;;;;5.90;2.40;;;;;15.40;97851.00;;;;111129;1249;41138;-61
2022/09/04 01:35:21;;;;;;;6.50;2.70;;;;;15.40;97850.60;;;;111064;1250;41618;-61
2022/09/04 01:38:16;;;;;;;5.60;2.40;;;;;15.42;97847.60;;;;111042;1250;41169;-61
2022/09/04 01:40:53;;;;;;;7.10;3.00;;;;;15.40;97846.20;;;;110934;1249;41382;-61
2022/09/04 01:43:23;;;;;;;6.00;2.70;;;;;15.42;97847.80;;;;111121;1247;42232;-61
2022/09/04 01:46:04;;;;;;;8.10;3.10;;;;;15.40;97847.20;;;;111132;1247;41627;-61
2022/09/04 01:48:44;;;;;;;7.40;3.30;;;;;15.40;97847.60;;;;110944;1247;41151;-61
2022/09/04 01:51:35;;;;;;;5.10;2.40;;;;;15.40;97850.20;;;;110990;1248;42118;-61
2022/09/04 01:54:38;;;;;;;5.30;2.30;;;;;15.40;97855.20;;;;111039;1248;41262;-61
2022/09/04 01:57:23;;;;;;;4.40;2.00;;;;;15.42;97859.20;;;;111026;1247;42028;-61
2022/09/04 02:00:10;;;;;;;4.20;1.90;;;;;15.50;97858.20;;;;111226;1248;41613;-61
2022/09/04 02:02:52;;;;;;;4.20;2.00;;;;;15.50;97858.20;;;;110655;1249;42522;-61
2022/09/04 02:05:37;;;;;;;4.20;1.90;;;;;15.50;97862.80;;;;111112;1249;41415;-61
2022/09/04 02:08:42;;;;;;;5.00;2.20;;;;;15.50;97860.80;;;;111056;1248;42021;-61
2022/09/04 02:11:25;;;;;;;6.70;2.20;;;;;15.60;97863.80;;;;111006;1249;41153;-61
2022/09/04 02:14:21;;;;;;;7.50;3.40;;;;;15.60;97863.40;;;;111153;1247;41789;-60
2022/09/04 02:17:08;;;;;;;14.60;3.30;;;;;15.60;97859.40;;;;110968;1249;42591;-61
2022/09/04 02:20:19;;;;;;;5.90;2.50;;;;;15.60;97856.40;;;;110984;1249;41545;-61
2022/09/04 02:22:56;;;;;;;6.50;2.70;;;;;15.66;97860.60;;;;110302;1255;41741;-60
2022/09/04 02:25:44;;;;;;;7.00;3.10;;;;;15.70;97858.20;;;;110262;1256;41146;-61
2022/09/04 02:28:49;;;;;;;6.20;2.70;;;;;15.70;97859.00;;;;110603;1250;41580;-60
2022/09/04 02:31:25;;;;;;;6.10;2.70;;;;;15.70;97855.60;;;;111048;1250;41260;-60
2022/09/04 02:34:37;;;;;;;7.50;3.10;;;;;15.70;97851.40;;;;111203;1250;41262;-61
2022/09/04 02:37:36;;;;;;;6.90;3.00;;;;;15.72;97846.80;;;;110844;1250;41266;-60
2022/09/04 02:40:21;;;;;;;7.40;2.90;;;;;15.76;97848.00;;;;110981;1250;41133;-60
2022/09/04 02:42:58;;;;;;;7.40;3.00;;;;;15.78;97842.20;;;;110746;1250;41126;-61
2022/09/04 02:45:58;;;;;;;11.20;4.90;;;;;15.72;97838.00;;;;111358;1249;42041;-61
2022/09/04 02:48:47;;;;;;;9.40;3.60;;;;;15.78;97837.60;;;;111056;1247;41262;-61
2022/09/04 02:51:39;;;;;;;9.10;3.90;;;;;15.70;97834.60;;;;110991;1249;41315;-61
2022/09/04 02:54:30;;;;;;;8.80;3.70;;;;;15.60;97836.60;;;;111111;1250;41265;-61
2022/09/04 02:57:43;;;;;;;7.60;3.40;;;;;15.60;97841.40;;;;111010;1249;41257;-62
2022/09/04 03:00:33;;;;;;;9.90;3.60;;;;;15.60;97838.20;;;;110354;1256;41035;-62
2022/09/04 03:03:27;;;;;;;8.30;3.70;;;;;15.60;97841.80;;;;110235;1256;41169;-61
2022/09/04 03:06:10;;;;;;;8.80;4.00;;;;;15.60;97842.00;;;;110927;1250;41280;-61
2022/09/04 03:08:50;;;;;;;13.40;4.80;;;;;15.60;97840.00;;;;111046;1249;41142;-61
2022/09/04 03:11:41;;;;;;;13.30;4.30;;;;;15.60;97840.40;;;;110660;1250;41186;-61
2022/09/04 03:14:38;;;;;;;10.50;4.90;;;;;15.58;97841.40;;;;111090;1250;41142;-61
2022/09/04 03:17:15;;;;;;;9.70;4.20;;;;;15.52;97842.40;;;;110901;1250;41263;-61
2022/09/04 03:20:05;;;;;;;8.80;4.20;;;;;15.60;97843.20;;;;111043;1248;41193;-61
2022/09/04 03:23:03;;;;;;;7.30;3.20;;;;;15.60;97852.60;;;;111136;1249;41137;-61
2022/09/04 03:25:52;;;;;;;6.20;2.60;;;;;15.60;97853.60;;;;111100;1248;41211;-61
2022/09/04 03:28:45;;;;;;;6.80;2.50;;;;;15.60;97856.80;;;;111071;1248;41844;-61
2022/09/04 03:31:32;;;;;;;8.10;3.50;;;;;15.62;97856.00;;;;111232;1249;41241;-61
2022/09/04 03:34:09;;;;;;;7.70;2.90;;;;;15.70;97864.20;;;;111151;1247;41764;-61
2022/09/04 03:37:16;;;;;;;7.40;2.40;;;;;15.70;97867.00;;;;111020;1247;41340;-61
2022/09/04 03:39:58;;;;;;;9.10;3.30;;;;;15.70;97872.00;;;;110684;1248;41267;-61
2022/09/04 03:42:56;;;;;;;7.00;3.20;;;;;15.70;97874.20;;;;111054;1247;41264;-61
2022/09/04 03:45:44;;;;;;;7.90;3.30;;;;;15.74;97875.20;;;;111145;1249;42132;-61
2022/09/04 03:48:51;;;;;;;6.30;2.80;;;;;15.80;97876.40;;;;111116;1249;42176;-61
2022/09/04 03:51:54;;;;;;;7.00;2.90;;;;;15.80;97877.60;;;;110836;1250;41626;-60
2022/09/04 03:54:48;;;;;;;7.10;2.60;;;;;15.80;97878.80;;;;110884;1250;41960;-60
2022/09/04 03:57:39;;;;;;;6.10;2.40;;;;;15.80;97879.00;;;;111034;1248;41245;-61
2022/09/04 04:00:10;;;;;;;6.40;2.60;;;;;15.80;97879.60;;;;111065;1250;41711;-61
2022/09/04 04:03:18;;;;;;;7.30;2.90;;;;;15.80;97882.60;;;;111116;1249;41711;-61
2022/09/04 04:05:52;;;;;;;5.40;2.30;;;;;15.80;97882.60;;;;111623;1248;42008;-62
2022/09/04 04:08:36;;;;;;;6.80;3.20;;;;;15.80;97882.20;;;;111439;1249;41670;-61
2022/09/04 04:11:20;;;;;;;7.10;2.90;;;;;15.80;97885.80;;;;111529;1250;41175;-61
2022/09/04 04:14:03;;;;;;;5.10;2.40;;;;;15.80;97884.20;;;;111369;1250;41154;-62
2022/09/04 04:16:39;;;;;;;6.20;2.60;;;;;15.80;97885.60;;;;111294;1248;41355;-63
2022/09/04 04:19:14;;;;;;;4.70;2.10;;;;;15.82;97885.20;;;;111305;1248;41145;-62
2022/09/04 04:22:02;;;;;;;5.70;2.60;;;;;15.90;97887.60;;;;111324;1248;41153;-61
2022/09/04 04:25:03;;;;;;;4.10;2.10;;;;;15.90;97886.40;;;;111186;1250;42484;-61
2022/09/04 04:27:53;;;;;;;6.40;2.80;;;;;16.00;97891.60;;;;111281;1247;41815;-61
2022/09/04 04:30:25;;;;;;;8.60;3.40;;;;;16.00;97893.40;;;;111242;1248;41143;-61
2022/09/04 04:33:27;;;;;;;6.90;3.00;;;;;16.10;97896.20;;;;111351;1248;41647;-62
2022/09/04 04:36:18;;;;;;;10.80;3.50;;;;;16.10;97893.40;;;;111109;1248;42224;-62
2022/09/04 04:39:18;;;;;;;9.20;3.00;;;;;16.20;97884.20;;;;111301;1249;41341;-61
2022/09/04 04:42:04;;;;;;;6.50;2.50;;;;;16.88;97866.60;;;;110781;1250;41634;-61
2022/09/04 04:47:52;;;;;;;7.20;2.80;;;;;18.78;97874.20;;;;111346;1248;41193;-61
2022/09/04 04:50:27;;;;;;;8.30;3.70;;;;;19.10;97878.40;;;;111369;1248;41610;-62
2022/09/04 04:53:14;;;;;;;7.20;3.10;;;;;18.90;97893.60;;;;110959;1250;41411;-61
2022/09/04 04:55:52;;;;;;;6.60;2.90;;;;;18.60;97896.20;;;;111418;1248;41751;-62
2022/09/04 04:58:36;;;;;;;5.70;2.50;;;;;18.34;97898.40;;;;111415;1248;41154;-61
2022/09/04 05:01:14;;;;;;;6.00;2.60;;;;;18.20;97903.20;;;;111227;1249;41146;-62
2022/09/04 05:04:17;;;;;;;7.40;2.90;;;;;18.10;97902.40;;;;111573;1250;41765;-62
2022/09/04 05:06:46;;;;;;;6.60;2.30;;;;;18.00;97909.20;;;;111565;1248;41149;-62
2022/09/04 05:09:21;;;;;;;6.90;2.90;;;;;17.90;97921.00;;;;111204;1248;41719;-61
2022/09/04 05:12:27;;;;;;;7.20;3.00;;;;;17.80;97915.20;;;;111089;1249;41931;-61
2022/09/04 05:15:05;;;;;;;5.60;2.40;;;;;17.60;97916.20;;;;111470;1247;40733;-62
2022/09/04 05:17:39;;;;;;;6.20;2.60;;;;;17.50;97919.40;;;;111307;1248;41612;-62
2022/09/04 05:20:17;;;;;;;5.50;2.30;;;;;17.50;97921.80;;;;111328;1249;42008;-62
2022/09/04 05:22:51;;;;;;;5.30;2.10;;;;;17.50;97926.40;;;;111380;1250;40881;-60
2022/09/04 05:25:29;;;;;;;4.60;2.10;;;;;17.50;97929.00;;;;111130;1250;41248;-60
2022/09/04 05:28:04;;;;;;;5.40;2.20;;;;;17.52;97936.00;;;;111498;1249;41314;-61
2022/09/04 05:31:04;;;;;;;5.50;2.40;;;;;17.52;97933.40;;;;111196;1248;41476;-61
2022/09/04 05:33:50;;;;;;;4.70;2.00;;;;;17.50;97936.00;;;;111242;1248;41253;-60
2022/09/04 05:36:26;;;;;;;6.20;2.50;;;;;17.50;97939.40;;;;111108;1250;41626;-60
2022/09/04 05:39:23;;;;;;;4.40;1.80;;;;;17.50;97938.00;;;;111269;1248;41556;-62
2022/09/04 05:42:19;;;;;;;3.80;1.80;;;;;17.50;97942.20;;;;111179;1248;41151;-62
2022/09/04 05:45:00;;;;;;;3.90;2.10;;;;;17.60;97943.80;;;;111143;1248;41946;-61
2022/09/04 05:47:47;;;;;;;4.60;2.10;;;;;17.66;97945.40;;;;110837;1250;41175;-61
2022/09/04 05:50:26;;;;;;;3.90;1.80;;;;;17.70;97947.20;;;;111384;1250;41563;-61
2022/09/04 05:53:22;;;;;;;4.80;2.20;;;;;17.70;97947.40;;;;111079;1250;41258;-60
2022/09/04 05:56:27;;;;;;;4.10;2.10;;;;;17.80;97948.20;;;;111452;1248;41347;-63
2022/09/04 05:59:03;;;;;;;4.00;1.70;;;;;17.90;97948.00;;;;110638;1255;41659;-62
2022/09/04 06:01:50;;;;;;;3.80;1.90;;;;;18.10;97947.00;;;;111005;1250;41520;-62
2022/09/04 06:04:55;;;;;;;4.60;2.20;;;;;18.20;97951.60;;;;111104;1248;41422;-62
2022/09/04 06:08:11;;;;;;;5.80;2.20;;;;;18.30;97952.00;;;;111360;1250;41150;-62
2022/09/04 06:10:53;;;;;;;4.60;2.20;;;;;18.50;97961.20;;;;110968;1251;41754;-61
2022/09/04 06:13:32;;;;;;;4.60;2.10;;;;;18.62;97962.60;;;;111146;1248;41150;-61
2022/09/04 06:16:29;;;;;;;4.70;2.10;;;;;18.70;97966.20;;;;111053;1250;41180;-62
2022/09/04 06:19:39;;;;;;;4.90;2.00;;;;;18.90;97950.80;;;;111129;1248;41124;-62
2022/09/04 06:22:19;;;;;;;4.60;2.20;;;;;19.20;97953.80;;;;111292;1247;41713;-62
2022/09/04 06:25:06;;;;;;;5.70;2.40;;;;;20.12;97939.00;;;;111574;1247;41902;-62
2022/09/04 06:27:54;;;;;;;3.10;1.70;;;;;21.72;97933.20;;;;111212;1250;41206;-62
2022/09/04 06:30:25;;;;;;;4.10;1.90;;;;;23.38;97932.60;;;;111093;1249;41158;-62
2022/09/04 06:33:11;;;;;;;3.80;1.70;;;;;24.70;97929.80;;;;111249;1249;41190;-62
2022/09/04 06:36:08;;;;;;;4.60;2.00;;;;;25.40;97940.80;;;;110916;1250;41135;-61
2022/09/04 06:39:16;;;;;;;5.20;2.30;;;;;25.60;97916.60;;;;111103;1250;41257;-62
2022/09/04 06:42:06;;;;;;;4.10;1.80;;;;;25.40;97936.00;;;;111008;1249;41149;-62
2022/09/04 06:45:08;;;;;;;5.20;2.00;;;;;24.90;97942.00;;;;110650;1249;42382;-63
2022/09/04 06:47:46;;;;;;;2.80;1.60;;;;;25.56;97937.60;;;;111138;1248;41144;-62
2022/09/04 06:50:24;;;;;;;4.00;1.70;;;;;26.34;97930.40;;;;111125;1250;40757;-64
2022/09/04 06:53:15;;;;;;;3.20;1.60;;;;;26.60;97943.80;;;;111014;1250;42495;-63
2022/09/04 06:56:22;;;;;;;5.80;2.10;;;;;27.36;97933.00;;;;110877;1248;41776;-62
2022/09/04 06:58:50;;;;;;;10.50;3.40;;;;;28.00;97952.20;;;;111151;1254;41077;-62
2022/09/04 07:01:55;;;;;;;7.20;2.40;;;;;27.90;97954.40;;;;111213;1250;40804;-62
2022/09/04 07:04:27;;;;;;;8.30;2.90;;;;;27.38;97963.80;;;;111688;1250;41602;-62
2022/09/04 07:07:34;;;;;;;9.40;2.90;;;;;26.98;97962.80;;;;111502;1248;41203;-62
2022/09/04 07:10:17;;;;;;;8.50;2.80;;;;;26.30;97967.40;;;;111414;1250;41124;-62
2022/09/04 07:12:58;;;;;;;10.40;3.30;;;;;26.10;97965.20;;;;111546;1247;41601;-62
2022/09/04 07:15:30;;;;;;;5.70;2.20;;;;;25.90;97966.20;;;;111915;1247;41988;-63
2022/09/04 07:18:13;;;;;;;2.30;1.50;;;;;25.52;97972.40;;;;111688;1250;41457;-62
2022/09/04 07:21:01;;;;;;;2.10;1.20;;;;;25.04;97974.20;;;;111733;1249;41258;-62
2022/09/04 07:23:55;;;;;;;2.50;1.40;;;;;24.76;97979.20;;;;111541;1250;40917;-62
2022/09/04 07:26:52;;;;;;;1.90;1.20;;;;;24.40;97984.00;;;;111320;1250;41609;-62
2022/09/04 07:29:31;;;;;;;3.60;1.40;;;;;24.10;97985.60;;;;111430;1250;41763;-62
2022/09/04 07:32:24;;;;;;;2.80;1.50;;;;;23.90;97990.60;;;;111638;1249;41989;-62
2022/09/04 07:35:06;;;;;;;1.70;1.20;;;;;23.70;97989.80;;;;111710;1248;41148;-62
2022/09/04 07:37:57;;;;;;;2.40;1.40;;;;;23.98;97984.60;;;;111239;1250;40740;-62
2022/09/04 07:40:38;;;;;;;2.20;1.40;;;;;25.20;97979.40;;;;111511;1249;41182;-62
2022/09/04 07:43:44;;;;;;;1.50;1.30;;;;;26.66;97980.60;;;;111097;1250;41143;-62
2022/09/04 07:46:43;;;;;;;1.70;1.20;;;;;28.10;97970.00;;;;111507;1250;41194;-63
2022/09/04 07:49:21;;;;;;;1.20;1.10;;;;;29.14;97968.80;;;;111321;1250;41595;-63
2022/09/04 07:51:58;;;;;;;1.20;1.10;;;;;30.00;97963.00;;;;111924;1250;41136;-63
2022/09/04 07:55:02;;;;;;;1.20;1.10;;;;;30.56;97956.40;;;;111566;1248;41597;-63
2022/09/04 07:58:18;;;;;;;1.20;1.10;;;;;30.96;97950.80;;;;111181;1249;41137;-64
2022/09/04 08:00:52;;;;;;;1.00;1.00;;;;;30.90;97957.20;;;;111344;1250;41794;-63
2022/09/04 08:03:56;;;;;;;0.80;0.70;;;;;30.58;97954.00;;;;111586;1249;41163;-64
2022/09/04 08:06:40;;;;;;;1.60;1.00;;;;;30.60;97953.80;;;;111432;1249;42619;-64
2022/09/04 08:09:24;;;;;;;0.70;0.70;;;;;30.50;97953.60;;;;111675;1249;40879;-63
2022/09/04 08:11:58;;;;;;;0.70;0.60;;;;;30.30;97955.20;;;;111529;1248;43189;-63
2022/09/04 08:15:03;;;;;;;0.80;0.70;;;;;30.40;97960.20;;;;111671;1249;41141;-63
2022/09/04 08:18:20;;;;;;;0.60;0.60;;;;;30.70;97958.40;;;;111267;1250;41155;-63
2022/09/04 08:21:24;;;;;;;0.80;0.60;;;;;31.00;97957.20;;;;111175;1247;41251;-63
2022/09/04 08:24:08;;;;;;;1.00;1.00;;;;;31.00;97962.20;;;;111096;1248;41248;-63
2022/09/04 08:26:45;;;;;;;0.90;0.80;;;;;30.50;97960.40;;;;111077;1250;41713;-63
2022/09/04 08:29:14;;;;;;;0.70;0.70;;;;;30.70;97951.80;;;;111078;1249;41556;-63
2022/09/04 08:31:54;;;;;;;1.00;0.80;;;;;32.22;97948.40;;;;111084;1248;41511;-63
2022/09/04 08:34:32;;;;;;;1.10;1.00;;;;;33.26;97943.40;;;;111076;1248;41179;-63
2022/09/04 08:37:12;;;;;;;1.30;0.90;;;;;33.48;97944.00;;;;111044;1250;41149;-62
2022/09/04 08:39:59;;;;;;;0.70;0.60;;;;;34.24;97946.40;;;;111073;1250;41257;-63
2022/09/04 08:42:50;;;;;;;0.60;0.60;;;;;35.50;97948.00;;;;111051;1249;41670;-63
2022/09/04 08:45:25;;;;;;;1.10;0.80;;;;;35.90;97947.20;;;;111298;1250;41258;-64
2022/09/04 08:48:09;;;;;;;0.90;0.80;;;;;36.10;97941.80;;;;110979;1250;41245;-64
2022/09/04 08:51:15;;;;;;;0.70;0.60;;;;;36.50;97952.80;;;;111518;1249;41244;-64
2022/09/04 08:54:04;;;;;;;0.80;0.70;;;;;35.34;97951.40;;;;111207;1250;41612;-63
2022/09/04 08:56:36;;;;;;;0.50;0.50;;;;;34.80;97948.60;;;;111118;1250;41266;-63
2022/09/04 08:59:14;;;;;;;4.40;0.80;;;;;34.94;97941.80;;;;111147;1250;41576;-64
2022/09/04 09:02:29;;;;;;;0.60;0.60;;;;;35.84;97943.80;;;;111079;1250;41267;-64
2022/09/04 09:05:35;;;;;;;1.10;0.90;;;;;36.74;97946.20;;;;111161;1250;42355;-63
2022/09/04 09:08:27;;;;;;;0.70;0.60;;;;;37.66;97943.00;;;;111149;1250;41156;-63
2022/09/04 09:11:20;;;;;;;0.80;0.70;;;;;38.06;97947.60;;;;111184;1249;41640;-65
2022/09/04 09:14:19;;;;;;;1.80;1.10;;;;;36.68;97953.80;;;;111082;1250;41286;-65
2022/09/04 09:16:59;;;;;;;1.60;0.90;;;;;35.08;97958.60;;;;111088;1250;41152;-64
2022/09/04 09:19:45;;;;;;;0.60;0.60;;;;;33.80;97965.80;;;;110978;1250;42439;-64
2022/09/04 09:22:46;;;;;;;0.70;0.70;;;;;32.50;97969.60;;;;111135;1248;41260;-63
2022/09/04 09:25:20;;;;;;;0.80;0.70;;;;;31.54;97971.20;;;;111029;1250;41279;-65
2022/09/04 09:28:09;;;;;;;1.10;0.70;;;;;30.88;97974.00;;;;110884;1250;41262;-64
2022/09/04 09:30:38;;;;;;;1.60;0.60;;;;;30.96;97965.40;;;;111130;1248;41911;-64
2022/09/04 09:33:27;;;;;;;1.30;0.90;;;;;32.08;97962.80;;;;111146;1247;41783;-65
2022/09/04 09:36:25;;;;;;;0.30;0.30;;;;;32.94;97968.00;;;;111195;1247;42236;-64
2022/09/04 09:39:08;;;;;;;0.90;0.60;;;;;33.12;97970.00;;;;111128;1250;41280;-66
2022/09/04 09:42:18;;;;;;;0.60;0.60;;;;;32.64;97965.80;;;;111126;1250;41700;-64
2022/09/04 09:45:05;;;;;;;0.70;0.60;;;;;32.12;97955.80;;;;111172;1250;41131;-64
2022/09/04 09:48:00;;;;;;;0.70;0.70;;;;;32.88;97953.80;;;;110901;1250;41164;-65
2022/09/04 09:50:40;;;;;;;0.60;0.60;;;;;34.14;97949.60;;;;110839;1250;41357;-64
2022/09/04 09:53:31;;;;;;;0.60;0.60;;;;;35.18;97945.20;;;;111132;1250;41264;-65
2022/09/04 09:56:33;;;;;;;0.50;0.50;;;;;35.72;97950.60;;;;111297;1250;41634;-63
2022/09/04 09:59:28;;;;;;;1.30;0.70;;;;;35.30;97949.80;;;;111021;1250;41214;-63
2022/09/04 10:02:18;;;;;;;1.50;0.80;;;;;35.10;97946.60;;;;110958;1250;41195;-63
2022/09/04 10:04:54;;;;;;;0.60;0.60;;;;;34.78;97957.40;;;;111053;1247;42384;-64
2022/09/04 10:07:27;;;;;;;0.60;0.50;;;;;33.60;97962.20;;;;110978;1250;41146;-63
2022/09/04 10:10:20;;;;;;;0.40;0.40;;;;;32.86;97962.60;;;;110909;1250;41265;-63
2022/09/04 10:13:08;;;;;;;0.60;0.60;;;;;32.10;97959.80;;;;111150;1248;42099;-64
2022/09/04 10:16:01;;;;;;;0.90;0.50;;;;;32.52;97962.60;;;;111029;1248;41134;-63
2022/09/04 10:18:33;;;;;;;0.50;0.50;;;;;33.46;97965.20;;;;111042;1250;41773;-64
2022/09/04 10:21:26;;;;;;;0.70;0.60;;;;;34.34;97959.80;;;;111079;1250;41173;-64
2022/09/04 10:24:32;;;;;;;1.00;0.60;;;;;35.16;97950.20;;;;111102;1250;41143;-64
2022/09/04 10:27:08;;;;;;;0.60;0.60;;;;;35.84;97945.00;;;;110985;1250;41254;-64
2022/09/04 10:29:53;;;;;;;1.10;0.50;;;;;35.50;97948.20;;;;111040;1250;41260;-66
2022/09/04 10:32:22;;;;;;;0.60;0.50;;;;;35.72;97953.40;;;;111107;1250;41166;-64
2022/09/04 10:35:02;;;;;;;0.50;0.50;;;;;35.04;97951.80;;;;111119;1250;41706;-65
2022/09/04 10:38:11;;;;;;;2.80;0.60;;;;;34.20;97953.00;;;;111019;1250;41158;-63
2022/09/04 10:40:52;;;;;;;0.50;0.50;;;;;33.74;97952.20;;;;111114;1250;41233;-64
2022/09/04 10:43:57;;;;;;;0.70;0.70;;;;;34.34;97950.60;;;;111156;1250;41328;-65
2022/09/04 10:47:01;;;;;;;1.00;0.70;;;;;34.96;97949.60;;;;110951;1251;41177;-64
2022/09/04 10:49:52;;;;;;;0.50;0.50;;;;;35.64;97945.40;;;;111110;1250;42377;-64
2022/09/04 10:52:39;;;;;;;0.60;0.60;;;;;36.10;97942.80;;;;110966;1250;42313;-64
2022/09/04 10:55:26;;;;;;;2.00;0.80;;;;;35.58;97958.80;;;;111021;1248;41152;-65
2022/09/04 10:58:38;;;;;;;0.40;0.40;;;;;34.48;97955.40;;;;110856;1251;41187;-65
2022/09/04 11:01:44;;;;;;;0.80;0.70;;;;;34.00;97958.20;;;;110982;1250;41621;-64
2022/09/04 11:04:46;;;;;;;1.50;0.90;;;;;33.64;97961.80;;;;110413;1258;42379;-63
2022/09/04 11:07:54;;;;;;;0.50;0.50;;;;;32.96;97968.20;;;;110781;1250;41986;-66
2022/09/04 11:10:45;;;;;;;1.00;0.70;;;;;32.30;97967.80;;;;110965;1251;41155;-64
2022/09/04 11:13:35;;;;;;;1.20;0.70;;;;;31.46;97968.80;;;;111029;1251;41250;-63
2022/09/04 11:16:18;;;;;;;0.40;0.40;;;;;30.70;97973.40;;;;111204;1251;41251;-63
2022/09/04 11:19:21;;;;;;;0.60;0.60;;;;;30.20;97969.40;;;;110918;1250;41267;-65
2022/09/04 11:22:33;;;;;;;0.90;0.70;;;;;29.68;97969.60;;;;111214;1250;41489;-63
2022/09/04 11:25:23;;;;;;;0.70;0.70;;;;;29.00;97967.40;;;;111117;1250;41257;-63
2022/09/04 11:28:01;;;;;;;0.60;0.60;;;;;28.58;97963.00;;;;111034;1250;41726;-62
2022/09/04 11:30:47;;;;;;;1.00;0.70;;;;;28.40;97966.00;;;;111068;1250;40976;-63
2022/09/04 11:33:43;;;;;;;0.90;0.90;;;;;28.08;97960.80;;;;111258;1250;40829;-62
2022/09/04 11:36:28;;;;;;;0.80;0.80;;;;;27.90;97961.40;;;;111085;1250;41182;-61
2022/09/04 11:39:24;;;;;;;0.90;0.70;;;;;27.80;97960.20;;;;111300;1251;41756;-62
2022/09/04 11:42:19;;;;;;;0.60;0.60;;;;;27.70;97960.20;;;;111135;1248;41181;-63
2022/09/04 11:45:13;;;;;;;0.50;0.50;;;;;27.80;97960.80;;;;111372;1248;41162;-63
2022/09/04 11:47:51;;;;;;;0.70;0.70;;;;;28.02;97946.40;;;;111104;1250;42224;-63
2022/09/04 11:50:39;;;;;;;0.90;0.70;;;;;29.18;97940.80;;;;111156;1249;41147;-63
2022/09/04 11:53:18;;;;;;;0.70;0.70;;;;;30.76;97933.40;;;;111143;1250;41300;-63
2022/09/04 11:56:08;;;;;;;0.80;0.80;;;;;31.62;97928.00;;;;111006;1250;41159;-64
2022/09/04 11:59:00;;;;;;;0.60;0.60;;;;;32.90;97922.40;;;;111131;1248;41155;-64
2022/09/04 12:02:00;;;;;;;2.40;0.80;;;;;33.32;97923.60;;;;111168;1250;41147;-65
2022/09/04 12:04:38;;;;;;;1.50;0.70;;;;;34.52;97918.60;;;;111116;1251;40983;-64
2022/09/04 12:07:19;;;;;;;0.70;0.70;;;;;35.52;97914.20;;;;111135;1248;41363;-65
2022/09/04 12:09:50;;;;;;;1.40;0.90;;;;;35.98;97922.40;;;;111143;1251;41162;-64
2022/09/04 12:12:44;;;;;;;1.00;0.70;;;;;36.04;97916.00;;;;110890;1250;41747;-65
2022/09/04 12:15:31;;;;;;;0.40;0.40;;;;;36.10;97922.20;;;;111121;1250;40892;-64
2022/09/04 12:18:08;;;;;;;0.40;0.40;;;;;36.60;97929.80;;;;111094;1248;41603;-64
2022/09/04 12:21:11;;;;;;;0.50;0.50;;;;;36.50;97924.60;;;;111222;1248;41724;-62
2022/09/04 12:24:02;;;;;;;0.30;0.30;;;;;36.72;97921.20;;;;111092;1248;41278;-65
2022/09/04 12:26:43;;;;;;;0.60;0.60;;;;;37.48;97912.80;;;;111131;1250;41582;-65
2022/09/04 12:29:30;;;;;;;0.50;0.50;;;;;38.26;97912.80;;;;109565;1249;1572487;-64
2022/09/04 12:32:20;;;;;;;0.50;0.40;;;;;38.52;97911.80;;;;111334;1250;41134;-64
2022/09/04 12:35:20;;;;;;;2.30;0.70;;;;;38.40;97911.00;;;;111118;1250;41151;-64
2022/09/04 12:37:55;;;;;;;0.80;0.50;;;;;38.44;97903.80;;;;111282;1247;40743;-65
2022/09/04 12:40:50;;;;;;;0.80;0.60;;;;;38.62;97904.40;;;;111202;1247;41134;-64
2022/09/04 12:43:41;;;;;;;0.60;0.40;;;;;38.60;97906.20;;;;111221;1248;41151;-64
2022/09/04 12:46:47;;;;;;;0.80;0.60;;;;;38.74;97907.80;;;;111332;1248;41421;-64
2022/09/04 12:49:54;;;;;;;0.40;0.40;;;;;38.48;97911.20;;;;111095;1252;41481;-65
2022/09/04 12:52:51;;;;;;;0.20;0.20;;;;;38.78;97913.00;;;;111144;1247;41805;-63
2022/09/04 12:55:21;;;;;;;0.30;0.30;;;;;38.90;97902.40;;;;111088;1248;41755;-63
2022/09/04 12:58:02;;;;;;;0.60;0.60;;;;;38.54;97905.20;;;;111141;1251;41206;-64
2022/09/04 13:00:39;;;;;;;0.40;0.40;;;;;38.28;97905.40;;;;111128;1248;41247;-64
2022/09/04 13:03:43;;;;;;;0.70;0.70;;;;;38.10;97904.00;;;;111177;1247;41550;-63
2022/09/04 13:06:35;;;;;;;0.60;0.60;;;;;38.38;97896.00;;;;111248;1248;41150;-63
2022/09/04 13:09:10;;;;;;;0.40;0.40;;;;;37.40;97897.00;;;;111109;1247;41151;-63
2022/09/04 13:12:02;;;;;;;0.40;0.40;;;;;36.82;97900.60;;;;111127;1247;41993;-64
2022/09/04 13:14:39;;;;;;;2.20;0.60;;;;;36.90;97901.80;;;;111230;1248;41250;-64
2022/09/04 13:17:17;;;;;;;0.60;0.60;;;;;37.00;97897.20;;;;111321;1248;42046;-64
2022/09/04 13:20:08;;;;;;;0.60;0.50;;;;;36.46;97894.20;;;;111171;1248;41638;-63
2022/09/04 13:22:56;;;;;;;0.40;0.40;;;;;36.30;97892.20;;;;111190;1250;41123;-62
2022/09/04 13:25:26;;;;;;;;;;;;;36.08;97887.20;;;;111165;1250;41900;-63
2022/09/04 13:28:15;;;;;;;0.50;0.50;;;;;35.30;97890.80;;;;111316;1250;41146;-63
2022/09/04 13:31:20;;;;;;;0.60;0.60;;;;;34.62;97890.40;;;;111092;1247;41145;-63
2022/09/04 13:34:27;;;;;;;1.50;0.90;;;;;34.20;97886.20;;;;111193;1247;41802;-63
2022/09/04 13:37:37;;;;;;;0.70;0.60;;;;;33.44;97887.60;;;;111044;1250;41200;-63
2022/09/04 13:40:21;;;;;;;0.80;0.60;;;;;32.46;97888.40;;;;110608;1254;41142;-63
2022/09/04 13:43:09;;;;;;;1.00;0.60;;;;;31.68;97890.40;;;;111149;1249;41172;-63
2022/09/04 13:45:50;;;;;;;0.90;0.80;;;;;31.10;97897.20;;;;111295;1247;41719;-63
2022/09/04 13:48:57;;;;;;;0.50;0.50;;;;;30.70;97892.20;;;;111044;1248;41437;-63
2022/09/04 13:51:33;;;;;;;0.80;0.70;;;;;30.20;97893.00;;;;110797;1256;41156;-63
2022/09/04 13:54:08;;;;;;;0.50;0.50;;;;;30.00;97893.20;;;;111078;1249;41911;-63
2022/09/04 13:56:43;;;;;;;0.70;0.70;;;;;29.78;97896.20;;;;111281;1247;40747;-62
2022/09/04 13:59:16;;;;;;;2.30;1.40;;;;;29.56;97897.20;;;;111107;1250;41938;-62